Treberon — FGD8075 — position and weather

sailwx.info

Track history (hours):
 
Tides and Currents Weather Stations Pressure Air Temp Water Temp Dewpoint Dewpoint Depression Visibility Wind Speed Wind Dir Waves Ship Positions

Treberon

Last reported at 2017-Nov-25 02:00 UTC. Time now 2017-Nov-25 02:05 UTC.
Position N 48°23' W 004°30'.

MMSI: 226544246.

Date/timePositionNaut miles runAvg speedWind from/ knotsBaromVisibWave heightAir tempDewpointWater temp
2017-Nov-25 02:00N 48°23' W 004°30'0 0.0
2017-Nov-25 01:31N 48°23' W 004°30'0 0.0
2017-Nov-25 01:01N 48°23' W 004°30'0 0.0
2017-Nov-25 00:30N 48°23' W 004°30'0 0.0
2017-Nov-25 00:00N 48°23' W 004°30'0 0.0
2017-Nov-24 23:30N 48°23' W 004°30'0 0.0
2017-Nov-24 23:00N 48°23' W 004°30'0 0.0
2017-Nov-24 22:30N 48°23' W 004°30'0 0.0
2017-Nov-24 22:01N 48°23' W 004°30'0 0.0
2017-Nov-24 21:30N 48°23' W 004°30'0 0.0
2017-Nov-24 21:01N 48°23' W 004°30'0 0.0
2017-Nov-24 20:31N 48°23' W 004°30'0 0.0
2017-Nov-24 20:00N 48°23' W 004°30'0 0.0
2017-Nov-24 19:31N 48°23' W 004°30'0 0.0
2017-Nov-24 19:01N 48°23' W 004°30'0 0.0
2017-Nov-24 18:31N 48°23' W 004°30'0 0.0
2017-Nov-24 18:01N 48°23' W 004°30'510.5
2017-Nov-24 17:30N 48°18' W 004°30'3 5.4
2017-Nov-24 17:00N 48°19' W 004°27'5 9.8
2017-Nov-24 16:30N 48°23' W 004°30'0 0.2
2017-Nov-24 16:00N 48°23' W 004°30'510.3
2017-Nov-24 15:30N 48°18' W 004°31'4 8.4
2017-Nov-24 15:01N 48°22' W 004°29'1 2.4
2017-Nov-24 14:30N 48°23' W 004°30'0 0.0
2017-Nov-24 14:00N 48°23' W 004°30'0 0.0
2017-Nov-24 13:31N 48°23' W 004°30'0 0.0
2017-Nov-24 13:00N 48°23' W 004°30'0 0.0
2017-Nov-24 12:30N 48°23' W 004°30'0 0.0
2017-Nov-24 12:01N 48°23' W 004°30'0 0.0
2017-Nov-24 11:31N 48°23' W 004°30'0 0.0
2017-Nov-24 11:00N 48°23' W 004°30'0 0.0
2017-Nov-24 10:30N 48°23' W 004°30'0 0.0
2017-Nov-24 10:01N 48°23' W 004°30'0 0.0
2017-Nov-24 09:31N 48°23' W 004°30'0 0.0
2017-Nov-24 09:00N 48°23' W 004°30'0 0.0
2017-Nov-24 08:30N 48°23' W 004°30'0 0.0
2017-Nov-24 08:00N 48°23' W 004°30'0 0.0
2017-Nov-24 07:31N 48°23' W 004°30'510.5
2017-Nov-24 07:00N 48°18' W 004°31'510.0
2017-Nov-24 06:30N 48°23' W 004°30'0 0.6
2017-Nov-24 06:00N 48°23' W 004°30'0 0.2
2017-Nov-24 05:30N 48°23' W 004°30'0 0.0
2017-Nov-24 05:00N 48°23' W 004°30'0 0.0
2017-Nov-24 04:30N 48°23' W 004°30'0 0.0
2017-Nov-24 04:00N 48°23' W 004°30'0 0.0
2017-Nov-24 03:30N 48°23' W 004°30'0 0.0
2017-Nov-24 03:00N 48°23' W 004°30'0 0.0
2017-Nov-24 02:30N 48°23' W 004°30'0 0.0
2017-Nov-24 02:00N 48°23' W 004°30'0 0.0
2017-Nov-24 01:30N 48°23' W 004°30'0 0.0
2017-Nov-24 01:00N 48°23' W 004°30'0 0.0
2017-Nov-24 00:30N 48°23' W 004°30'0 0.0
2017-Nov-24 00:00N 48°23' W 004°30'0 0.0
2017-Nov-23 23:30N 48°23' W 004°30'0 0.0
2017-Nov-23 23:00N 48°23' W 004°30'0 0.0
2017-Nov-23 22:31N 48°23' W 004°30'0 0.0
2017-Nov-23 22:00N 48°23' W 004°30'0 0.0
2017-Nov-23 21:30N 48°23' W 004°30'0 0.0
2017-Nov-23 21:00N 48°23' W 004°30'0 0.0
2017-Nov-23 20:30N 48°23' W 004°30'0 0.0
2017-Nov-23 20:00N 48°23' W 004°30'0 0.0
2017-Nov-23 19:30N 48°23' W 004°30'0 0.0
2017-Nov-23 19:00N 48°23' W 004°30'0 0.0
2017-Nov-23 18:30N 48°23' W 004°30'0 0.0
2017-Nov-23 18:00N 48°23' W 004°30'0 0.0
2017-Nov-23 17:30N 48°23' W 004°30'0 0.0
2017-Nov-23 17:00N 48°23' W 004°30'0 0.0
2017-Nov-23 16:30N 48°23' W 004°30'1 2.2
2017-Nov-23 16:00N 48°22' W 004°29'4 8.4
2017-Nov-23 15:30N 48°18' W 004°31'510.4
2017-Nov-23 15:01N 48°23' W 004°30'0 0.0
2017-Nov-23 14:30N 48°23' W 004°30'0 0.0
2017-Nov-23 14:01N 48°23' W 004°30'0 0.0
2017-Nov-23 13:31N 48°23' W 004°30'0 0.0
2017-Nov-23 13:01N 48°23' W 004°30'0 0.0
2017-Nov-23 12:30N 48°23' W 004°30'0 0.0
2017-Nov-23 12:01N 48°23' W 004°30'0 0.0
2017-Nov-23 11:31N 48°23' W 004°30'510.5
2017-Nov-23 11:00N 48°18' W 004°31'4 7.7
2017-Nov-23 10:30N 48°17' W 004°25'713.4
2017-Nov-23 10:01N 48°23' W 004°30'0 0.1
2017-Nov-23 09:30N 48°23' W 004°30'0 0.0
2017-Nov-23 09:00N 48°23' W 004°30'1 1.8
2017-Nov-23 08:30N 48°22' W 004°29'4 8.9
2017-Nov-23 08:00N 48°18' W 004°31'510.5
2017-Nov-23 07:30N 48°23' W 004°30'510.2
2017-Nov-23 07:00N 48°18' W 004°30'0 1.0
2017-Nov-23 06:30N 48°18' W 004°31'510.4
2017-Nov-23 06:00N 48°23' W 004°30'0 0.0
2017-Nov-23 05:30N 48°23' W 004°30'0 0.0
2017-Nov-23 05:00N 48°23' W 004°30'0 0.0
2017-Nov-23 04:30N 48°23' W 004°30'0 0.0
2017-Nov-23 04:00N 48°23' W 004°30'0 0.0
2017-Nov-23 03:30N 48°23' W 004°30'0 0.0
2017-Nov-23 03:01N 48°23' W 004°30'0 0.0
2017-Nov-23 02:31N 48°23' W 004°30'0 0.0
2017-Nov-23 02:01N 48°23' W 004°30'0 0.0
2017-Nov-23 01:30N 48°23' W 004°30'0 0.0
2017-Nov-23 01:00N 48°23' W 004°30'0 0.0
2017-Nov-23 00:31N 48°23' W 004°30'0 0.0
2017-Nov-23 00:00N 48°23' W 004°30'0 0.0
2017-Nov-22 23:30N 48°23' W 004°30'0 0.0
2017-Nov-22 23:01N 48°23' W 004°30'0 0.0
2017-Nov-22 22:30N 48°23' W 004°30'0 0.0
2017-Nov-22 22:00N 48°23' W 004°30'0 0.0
2017-Nov-22 21:30N 48°23' W 004°30'0 0.0
2017-Nov-22 21:00N 48°23' W 004°30'0 0.0
2017-Nov-22 20:30N 48°23' W 004°30'0 0.0
2017-Nov-22 20:00N 48°23' W 004°30'0 0.0
2017-Nov-22 19:30N 48°23' W 004°30'  
2017-Nov-20 00:31N 48°23' W 004°30'0 0.0
2017-Nov-20 00:00N 48°23' W 004°30'0 0.0
2017-Nov-19 23:31N 48°23' W 004°30'0 0.0
2017-Nov-19 23:01N 48°23' W 004°30'0 0.0
2017-Nov-19 22:30N 48°23' W 004°30'0 0.0
2017-Nov-19 22:01N 48°23' W 004°30'0 0.0
2017-Nov-19 21:30N 48°23' W 004°30'0 0.0
2017-Nov-19 21:00N 48°23' W 004°30'0 0.0
2017-Nov-19 20:30N 48°23' W 004°30'0 0.0
2017-Nov-19 20:00N 48°23' W 004°30'0 0.0
2017-Nov-19 19:31N 48°23' W 004°30'0 0.0
2017-Nov-19 19:01N 48°23' W 004°30'0 0.0
2017-Nov-19 18:30N 48°23' W 004°30'0 0.0
2017-Nov-19 18:01N 48°23' W 004°30'0 0.0
2017-Nov-19 17:31N 48°23' W 004°30'0 0.0
2017-Nov-19 17:00N 48°23' W 004°30'0 0.0
2017-Nov-19 16:31N 48°23' W 004°30'0 0.0
2017-Nov-19 16:01N 48°23' W 004°30'0 0.0
2017-Nov-19 15:31N 48°23' W 004°30'0 0.0
2017-Nov-19 15:00N 48°23' W 004°30'0 0.0
2017-Nov-19 14:30N 48°23' W 004°30'0 0.0
2017-Nov-19 14:01N 48°23' W 004°30'0 0.0
2017-Nov-19 13:31N 48°23' W 004°30'0 0.0
2017-Nov-19 13:00N 48°23' W 004°30'0 0.0
2017-Nov-19 12:30N 48°23' W 004°30'0 0.0
2017-Nov-19 12:00N 48°23' W 004°30'0 0.0
2017-Nov-19 11:31N 48°23' W 004°30'0 0.0
2017-Nov-19 11:01N 48°23' W 004°30'0 0.0
2017-Nov-19 10:31N 48°23' W 004°30'0 0.0
2017-Nov-19 10:01N 48°23' W 004°30'0 0.0
2017-Nov-19 09:30N 48°23' W 004°30'0 0.0
2017-Nov-19 09:00N 48°23' W 004°30'0 0.0
2017-Nov-19 08:30N 48°23' W 004°30'0 0.0
2017-Nov-19 08:00N 48°23' W 004°30'0 0.0
2017-Nov-19 07:30N 48°23' W 004°30'0 0.0
2017-Nov-19 07:00N 48°23' W 004°30'0 0.0
2017-Nov-19 06:31N 48°23' W 004°30'0 0.0
2017-Nov-19 06:00N 48°23' W 004°30'0 0.0
2017-Nov-19 05:31N 48°23' W 004°30'0 0.0
2017-Nov-19 05:01N 48°23' W 004°30'0 0.0
2017-Nov-19 04:31N 48°23' W 004°30'0 0.0
2017-Nov-19 04:00N 48°23' W 004°30'0 0.0
2017-Nov-19 03:31N 48°23' W 004°30'0 0.0
2017-Nov-19 03:00N 48°23' W 004°30'0 0.0
2017-Nov-19 02:30N 48°23' W 004°30'0 0.0
2017-Nov-19 02:00N 48°23' W 004°30'0 0.0
2017-Nov-19 01:30N 48°23' W 004°30'0 0.0
2017-Nov-19 01:01N 48°23' W 004°30'0 0.0
2017-Nov-19 00:31N 48°23' W 004°30'0 0.0
2017-Nov-19 00:00N 48°23' W 004°30'0 0.0
2017-Nov-18 23:31N 48°23' W 004°30'0 0.0
2017-Nov-18 23:00N 48°23' W 004°30'0 0.0
2017-Nov-18 22:30N 48°23' W 004°30'0 0.0
2017-Nov-18 22:01N 48°23' W 004°30'0 0.0
2017-Nov-18 21:30N 48°23' W 004°30'0 0.0
2017-Nov-18 21:01N 48°23' W 004°30'0 0.0
2017-Nov-18 20:31N 48°23' W 004°30'0 0.0
2017-Nov-18 20:00N 48°23' W 004°30'0 0.0
2017-Nov-18 19:31N 48°23' W 004°30'0 0.0
2017-Nov-18 19:01N 48°23' W 004°30'0 0.0
2017-Nov-18 18:30N 48°23' W 004°30'0 0.0
2017-Nov-18 18:01N 48°23' W 004°30'0 0.0
2017-Nov-18 17:30N 48°23' W 004°30'0 0.0
2017-Nov-18 17:00N 48°23' W 004°30'0 0.0
2017-Nov-18 16:31N 48°23' W 004°30'0 0.0
2017-Nov-18 16:00N 48°23' W 004°30'0 0.0
2017-Nov-18 15:31N 48°23' W 004°30'0 0.0
2017-Nov-18 15:01N 48°23' W 004°30'0 0.0
2017-Nov-18 14:31N 48°23' W 004°30'0 0.0
2017-Nov-18 14:00N 48°23' W 004°30'0 0.0
2017-Nov-18 13:30N 48°23' W 004°30'0 0.0
2017-Nov-18 13:00N 48°23' W 004°30'0 0.0
2017-Nov-18 12:30N 48°23' W 004°30'0 0.0
2017-Nov-18 12:01N 48°23' W 004°30'0 0.0
2017-Nov-18 11:31N 48°23' W 004°30'0 0.0
2017-Nov-18 11:00N 48°23' W 004°30'0 0.0
2017-Nov-18 10:30N 48°23' W 004°30'0 0.0
2017-Nov-18 10:01N 48°23' W 004°30'0 0.0
2017-Nov-18 09:30N 48°23' W 004°30'0 0.0
2017-Nov-18 09:01N 48°23' W 004°30'0 0.0
2017-Nov-18 08:30N 48°23' W 004°30'0 0.0
2017-Nov-18 08:00N 48°23' W 004°30'0 0.0
2017-Nov-18 07:31N 48°23' W 004°30'0 0.0
2017-Nov-18 07:01N 48°23' W 004°30'0 0.0
2017-Nov-18 06:30N 48°23' W 004°30'0 0.0
2017-Nov-18 06:01N 48°23' W 004°30'0 0.0
2017-Nov-18 05:31N 48°23' W 004°30'0 0.0
2017-Nov-18 05:01N 48°23' W 004°30'0 0.0
2017-Nov-18 04:30N 48°23' W 004°30'0 0.0
2017-Nov-18 04:01N 48°23' W 004°30'0 0.0
2017-Nov-18 03:30N 48°23' W 004°30'0 0.0
2017-Nov-18 03:00N 48°23' W 004°30'0 0.0
2017-Nov-18 02:31N 48°23' W 004°30'0 0.0
2017-Nov-18 02:00N 48°23' W 004°30'0 0.0
2017-Nov-18 01:30N 48°23' W 004°30'0 0.0
2017-Nov-18 01:00N 48°23' W 004°30'0 0.0
2017-Nov-18 00:30N 48°23' W 004°30'0 0.0
2017-Nov-18 00:01N 48°23' W 004°30'0 0.0
2017-Nov-17 23:31N 48°23' W 004°30'0 0.0
2017-Nov-17 23:01N 48°23' W 004°30'0 0.0
2017-Nov-17 22:30N 48°23' W 004°30'0 0.0
2017-Nov-17 22:00N 48°23' W 004°30'0 0.0
2017-Nov-17 21:31N 48°23' W 004°30'0 0.0
2017-Nov-17 21:00N 48°23' W 004°30'0 0.0
2017-Nov-17 20:30N 48°23' W 004°30'0 0.0
2017-Nov-17 20:00N 48°23' W 004°30'0 0.0
2017-Nov-17 19:31N 48°23' W 004°30'0 0.0
2017-Nov-17 19:01N 48°23' W 004°30'0 0.0
2017-Nov-17 18:31N 48°23' W 004°30'0 0.0
2017-Nov-17 18:00N 48°23' W 004°30'0 0.0
2017-Nov-17 17:30N 48°23' W 004°30'0 0.0
2017-Nov-17 17:00N 48°23' W 004°30'0 0.0
2017-Nov-17 16:30N 48°23' W 004°30'1 1.4
2017-Nov-17 16:00N 48°22' W 004°29'5 9.1
2017-Nov-17 15:30N 48°18' W 004°31'510.4
2017-Nov-17 15:00N 48°23' W 004°30'0 0.0
2017-Nov-17 14:31N 48°23' W 004°30'0 0.0
2017-Nov-17 14:01N 48°23' W 004°30'0 0.0
2017-Nov-17 13:31N 48°23' W 004°30'0 0.0
2017-Nov-17 13:01N 48°23' W 004°30'0 0.0
2017-Nov-17 12:30N 48°23' W 004°30'0 0.0
2017-Nov-17 12:01N 48°23' W 004°30'0 0.0
2017-Nov-17 11:31N 48°23' W 004°30'510.4
2017-Nov-17 11:00N 48°18' W 004°31'4 7.8
2017-Nov-17 10:30N 48°17' W 004°25'713.4
2017-Nov-17 10:00N 48°23' W 004°30'0 0.0
2017-Nov-17 09:31N 48°23' W 004°30'0 0.0
2017-Nov-17 09:01N 48°23' W 004°30'0 0.8
2017-Nov-17 08:30N 48°23' W 004°30'5 9.5
2017-Nov-17 08:00N 48°18' W 004°31'510.6
2017-Nov-17 07:31N 48°23' W 004°30'510.2
2017-Nov-17 07:00N 48°18' W 004°30'1 1.1
2017-Nov-17 06:30N 48°18' W 004°31'510.4
2017-Nov-17 06:01N 48°23' W 004°30'0 0.2
2017-Nov-17 05:31N 48°23' W 004°30'0 0.0
2017-Nov-17 05:01N 48°23' W 004°30'0 0.0
2017-Nov-17 04:31N 48°23' W 004°30'0 0.0
2017-Nov-17 04:01N 48°23' W 004°30'0 0.0
2017-Nov-17 03:30N 48°23' W 004°30'0 0.0
2017-Nov-17 03:01N 48°23' W 004°30'0 0.0
2017-Nov-17 02:31N 48°23' W 004°30'0 0.0
2017-Nov-17 02:00N 48°23' W 004°30'0 0.0
2017-Nov-17 01:31N 48°23' W 004°30'0 0.0
2017-Nov-17 01:00N 48°23' W 004°30'0 0.0
2017-Nov-17 00:30N 48°23' W 004°30'0 0.0
2017-Nov-17 00:00N 48°23' W 004°30'0 0.0
2017-Nov-16 23:30N 48°23' W 004°30'0 0.0
2017-Nov-16 23:01N 48°23' W 004°30'0 0.0
2017-Nov-16 22:31N 48°23' W 004°30'0 0.0
2017-Nov-16 22:00N 48°23' W 004°30'0 0.0
2017-Nov-16 21:30N 48°23' W 004°30'0 0.0
2017-Nov-16 21:00N 48°23' W 004°30'0 0.0
2017-Nov-16 20:31N 48°23' W 004°30'0 0.0
2017-Nov-16 20:00N 48°23' W 004°30'0 0.0
2017-Nov-16 19:30N 48°23' W 004°30'0 0.0
2017-Nov-16 19:01N 48°23' W 004°30'0 0.0
2017-Nov-16 18:31N 48°23' W 004°30'0 0.3
2017-Nov-16 18:01N 48°23' W 004°30'510.1
2017-Nov-16 17:30N 48°18' W 004°30'3 5.2
2017-Nov-16 17:00N 48°19' W 004°27'5 9.8
2017-Nov-16 16:30N 48°23' W 004°30'0 0.5
2017-Nov-16 16:01N 48°23' W 004°30'5 9.0
2017-Nov-16 15:27N 48°18' W 004°31'3 7.5
2017-Nov-16 15:01N 48°21' W 004°29'2 4.1
2017-Nov-16 14:30N 48°23' W 004°30'0 0.0
2017-Nov-16 14:00N 48°23' W 004°30'0 0.0
2017-Nov-16 13:30N 48°23' W 004°30'0 0.0
2017-Nov-16 13:00N 48°23' W 004°30'0 0.0
2017-Nov-16 12:30N 48°23' W 004°30'0 0.0
2017-Nov-16 12:00N 48°23' W 004°30'0 0.0
2017-Nov-16 11:30N 48°23' W 004°30'0 0.0
2017-Nov-16 11:00N 48°23' W 004°30'0 0.0
2017-Nov-16 10:30N 48°23' W 004°30'0 0.0
2017-Nov-16 10:00N 48°23' W 004°30'0 0.0
2017-Nov-16 09:31N 48°23' W 004°30'0 0.0
2017-Nov-16 09:00N 48°23' W 004°30'0 0.0
2017-Nov-16 08:30N 48°23' W 004°30'0 0.0
2017-Nov-16 08:00N 48°23' W 004°30'0 0.0
2017-Nov-16 07:30N 48°23' W 004°30'510.5
2017-Nov-16 07:00N 48°18' W 004°31'510.0
2017-Nov-16 06:30N 48°23' W 004°30'0 0.6
2017-Nov-16 06:00N 48°23' W 004°30'0 0.0
2017-Nov-16 05:31N 48°23' W 004°30'0 0.0
2017-Nov-16 05:00N 48°23' W 004°30'0 0.0
2017-Nov-16 04:30N 48°23' W 004°30'0 0.0
2017-Nov-16 04:00N 48°23' W 004°30'0 0.0
2017-Nov-16 03:30N 48°23' W 004°30'0 0.0
2017-Nov-16 03:00N 48°23' W 004°30'0 0.0
2017-Nov-16 02:30N 48°23' W 004°30'0 0.0
2017-Nov-16 02:00N 48°23' W 004°30'0 0.0
2017-Nov-16 01:30N 48°23' W 004°30'0 0.0
2017-Nov-16 01:00N 48°23' W 004°30'0 0.0
2017-Nov-16 00:30N 48°23' W 004°30'0 0.0
2017-Nov-16 00:00N 48°23' W 004°30'0 0.0
2017-Nov-15 23:30N 48°23' W 004°30'0 0.0
2017-Nov-15 23:00N 48°23' W 004°30'0 0.0
2017-Nov-15 22:30N 48°23' W 004°30'0 0.0
2017-Nov-15 22:00N 48°23' W 004°30'0 0.0
2017-Nov-15 21:30N 48°23' W 004°30'0 0.0
2017-Nov-15 21:00N 48°23' W 004°30'0 0.0
2017-Nov-15 20:30N 48°23' W 004°30'0 0.0
2017-Nov-15 20:01N 48°23' W 004°30'0 0.0
2017-Nov-15 19:30N 48°23' W 004°30'0 0.0
2017-Nov-15 19:00N 48°23' W 004°30'0 0.0
2017-Nov-15 18:30N 48°23' W 004°30'0 0.4
2017-Nov-15 18:00N 48°23' W 004°30'510.1
2017-Nov-15 17:30N 48°18' W 004°30'2 4.9
2017-Nov-15 17:00N 48°19' W 004°27'5 9.6
2017-Nov-15 16:30N 48°23' W 004°30'0 0.5
2017-Nov-15 16:00N 48°23' W 004°30'5 9.7
2017-Nov-15 15:29N 48°18' W 004°31'4 8.0
2017-Nov-15 15:01N 48°22' W 004°29'2 3.0
2017-Nov-15 14:30N 48°23' W 004°30'0 0.0
2017-Nov-15 14:00N 48°23' W 004°30'0 0.0
2017-Nov-15 13:30N 48°23' W 004°30'0 0.0
2017-Nov-15 13:01N 48°23' W 004°30'0 0.0
2017-Nov-15 12:30N 48°23' W 004°30'0 0.0
2017-Nov-15 12:00N 48°23' W 004°30'0 0.0
2017-Nov-15 11:30N 48°23' W 004°30'0 0.0
2017-Nov-15 11:00N 48°23' W 004°30'0 0.0
2017-Nov-15 10:30N 48°23' W 004°30'0 0.0
2017-Nov-15 10:00N 48°23' W 004°30'0 0.0
2017-Nov-15 09:30N 48°23' W 004°30'0 0.0
2017-Nov-15 09:00N 48°23' W 004°30'0 0.0
2017-Nov-15 08:30N 48°23' W 004°30'0 0.0
2017-Nov-15 08:00N 48°23' W 004°30'0 0.0
2017-Nov-15 07:30N 48°23' W 004°30'510.6
2017-Nov-15 07:00N 48°18' W 004°31'5 9.9
2017-Nov-15 06:31N 48°23' W 004°30'0 0.7
2017-Nov-15 06:00N 48°23' W 004°30'0 0.0
2017-Nov-15 05:30N 48°23' W 004°30'0 0.0
2017-Nov-15 05:01N 48°23' W 004°30'0 0.0
2017-Nov-15 04:31N 48°23' W 004°30'0 0.0
2017-Nov-15 04:00N 48°23' W 004°30'0 0.0
2017-Nov-15 03:31N 48°23' W 004°30'0 0.0
2017-Nov-15 03:01N 48°23' W 004°30'0 0.0
2017-Nov-15 02:30N 48°23' W 004°30'0 0.0
2017-Nov-15 02:00N 48°23' W 004°30'  
Track history (hours):
 
Tides and Currents Weather Stations Pressure Air Temp Water Temp Dewpoint Dewpoint Depression Visibility Wind Speed Wind Dir Waves Ship Positions

Treberon

Last reported at 2017-Nov-25 02:00 UTC. Time now 2017-Nov-25 02:05 UTC.
Position N 48°23' W 004°30'.

MMSI: 226544246.

Date/timePositionNaut miles runAvg speedWind from/ knotsBaromVisibWave heightAir tempDewpointWater temp
2017-Nov-25 02:00N 48°23' W 004°30'0 0.0
2017-Nov-25 01:31N 48°23' W 004°30'0 0.0
2017-Nov-25 01:01N 48°23' W 004°30'0 0.0
2017-Nov-25 00:30N 48°23' W 004°30'0 0.0
2017-Nov-25 00:00N 48°23' W 004°30'0 0.0
2017-Nov-24 23:30N 48°23' W 004°30'0 0.0
2017-Nov-24 23:00N 48°23' W 004°30'0 0.0
2017-Nov-24 22:30N 48°23' W 004°30'0 0.0
2017-Nov-24 22:01N 48°23' W 004°30'0 0.0
2017-Nov-24 21:30N 48°23' W 004°30'0 0.0
2017-Nov-24 21:01N 48°23' W 004°30'0 0.0
2017-Nov-24 20:31N 48°23' W 004°30'0 0.0
2017-Nov-24 20:00N 48°23' W 004°30'0 0.0
2017-Nov-24 19:31N 48°23' W 004°30'0 0.0
2017-Nov-24 19:01N 48°23' W 004°30'0 0.0
2017-Nov-24 18:31N 48°23' W 004°30'0 0.0
2017-Nov-24 18:01N 48°23' W 004°30'510.5
2017-Nov-24 17:30N 48°18' W 004°30'3 5.4
2017-Nov-24 17:00N 48°19' W 004°27'5 9.8
2017-Nov-24 16:30N 48°23' W 004°30'0 0.2
2017-Nov-24 16:00N 48°23' W 004°30'510.3
2017-Nov-24 15:30N 48°18' W 004°31'4 8.4
2017-Nov-24 15:01N 48°22' W 004°29'1 2.4
2017-Nov-24 14:30N 48°23' W 004°30'0 0.0
2017-Nov-24 14:00N 48°23' W 004°30'0 0.0
2017-Nov-24 13:31N 48°23' W 004°30'0 0.0
2017-Nov-24 13:00N 48°23' W 004°30'0 0.0
2017-Nov-24 12:30N 48°23' W 004°30'0 0.0
2017-Nov-24 12:01N 48°23' W 004°30'0 0.0
2017-Nov-24 11:31N 48°23' W 004°30'0 0.0
2017-Nov-24 11:00N 48°23' W 004°30'0 0.0
2017-Nov-24 10:30N 48°23' W 004°30'0 0.0
2017-Nov-24 10:01N 48°23' W 004°30'0 0.0
2017-Nov-24 09:31N 48°23' W 004°30'0 0.0
2017-Nov-24 09:00N 48°23' W 004°30'0 0.0
2017-Nov-24 08:30N 48°23' W 004°30'0 0.0
2017-Nov-24 08:00N 48°23' W 004°30'0 0.0
2017-Nov-24 07:31N 48°23' W 004°30'510.5
2017-Nov-24 07:00N 48°18' W 004°31'510.0
2017-Nov-24 06:30N 48°23' W 004°30'0 0.6
2017-Nov-24 06:00N 48°23' W 004°30'0 0.2
2017-Nov-24 05:30N 48°23' W 004°30'0 0.0
2017-Nov-24 05:00N 48°23' W 004°30'0 0.0
2017-Nov-24 04:30N 48°23' W 004°30'0 0.0
2017-Nov-24 04:00N 48°23' W 004°30'0 0.0
2017-Nov-24 03:30N 48°23' W 004°30'0 0.0
2017-Nov-24 03:00N 48°23' W 004°30'0 0.0
2017-Nov-24 02:30N 48°23' W 004°30'0 0.0
2017-Nov-24 02:00N 48°23' W 004°30'0 0.0
2017-Nov-24 01:30N 48°23' W 004°30'0 0.0
2017-Nov-24 01:00N 48°23' W 004°30'0 0.0
2017-Nov-24 00:30N 48°23' W 004°30'0 0.0
2017-Nov-24 00:00N 48°23' W 004°30'0 0.0
2017-Nov-23 23:30N 48°23' W 004°30'0 0.0
2017-Nov-23 23:00N 48°23' W 004°30'0 0.0
2017-Nov-23 22:31N 48°23' W 004°30'0 0.0
2017-Nov-23 22:00N 48°23' W 004°30'0 0.0
2017-Nov-23 21:30N 48°23' W 004°30'0 0.0
2017-Nov-23 21:00N 48°23' W 004°30'0 0.0
2017-Nov-23 20:30N 48°23' W 004°30'0 0.0
2017-Nov-23 20:00N 48°23' W 004°30'0 0.0
2017-Nov-23 19:30N 48°23' W 004°30'0 0.0
2017-Nov-23 19:00N 48°23' W 004°30'0 0.0
2017-Nov-23 18:30N 48°23' W 004°30'0 0.0
2017-Nov-23 18:00N 48°23' W 004°30'0 0.0
2017-Nov-23 17:30N 48°23' W 004°30'0 0.0
2017-Nov-23 17:00N 48°23' W 004°30'0 0.0
2017-Nov-23 16:30N 48°23' W 004°30'1 2.2
2017-Nov-23 16:00N 48°22' W 004°29'4 8.4
2017-Nov-23 15:30N 48°18' W 004°31'510.4
2017-Nov-23 15:01N 48°23' W 004°30'0 0.0
2017-Nov-23 14:30N 48°23' W 004°30'0 0.0
2017-Nov-23 14:01N 48°23' W 004°30'0 0.0
2017-Nov-23 13:31N 48°23' W 004°30'0 0.0
2017-Nov-23 13:01N 48°23' W 004°30'0 0.0
2017-Nov-23 12:30N 48°23' W 004°30'0 0.0
2017-Nov-23 12:01N 48°23' W 004°30'0 0.0
2017-Nov-23 11:31N 48°23' W 004°30'510.5
2017-Nov-23 11:00N 48°18' W 004°31'4 7.7
2017-Nov-23 10:30N 48°17' W 004°25'713.4
2017-Nov-23 10:01N 48°23' W 004°30'0 0.1
2017-Nov-23 09:30N 48°23' W 004°30'0 0.0
2017-Nov-23 09:00N 48°23' W 004°30'1 1.8
2017-Nov-23 08:30N 48°22' W 004°29'4 8.9
2017-Nov-23 08:00N 48°18' W 004°31'510.5
2017-Nov-23 07:30N 48°23' W 004°30'510.2
2017-Nov-23 07:00N 48°18' W 004°30'0 1.0
2017-Nov-23 06:30N 48°18' W 004°31'510.4
2017-Nov-23 06:00N 48°23' W 004°30'0 0.0
2017-Nov-23 05:30N 48°23' W 004°30'0 0.0
2017-Nov-23 05:00N 48°23' W 004°30'0 0.0
2017-Nov-23 04:30N 48°23' W 004°30'0 0.0
2017-Nov-23 04:00N 48°23' W 004°30'0 0.0
2017-Nov-23 03:30N 48°23' W 004°30'0 0.0
2017-Nov-23 03:01N 48°23' W 004°30'0 0.0
2017-Nov-23 02:31N 48°23' W 004°30'0 0.0
2017-Nov-23 02:01N 48°23' W 004°30'0 0.0
2017-Nov-23 01:30N 48°23' W 004°30'0 0.0
2017-Nov-23 01:00N 48°23' W 004°30'0 0.0
2017-Nov-23 00:31N 48°23' W 004°30'0 0.0
2017-Nov-23 00:00N 48°23' W 004°30'0 0.0
2017-Nov-22 23:30N 48°23' W 004°30'0 0.0
2017-Nov-22 23:01N 48°23' W 004°30'0 0.0
2017-Nov-22 22:30N 48°23' W 004°30'0 0.0
2017-Nov-22 22:00N 48°23' W 004°30'0 0.0
2017-Nov-22 21:30N 48°23' W 004°30'0 0.0
2017-Nov-22 21:00N 48°23' W 004°30'0 0.0
2017-Nov-22 20:30N 48°23' W 004°30'0 0.0
2017-Nov-22 20:00N 48°23' W 004°30'0 0.0
2017-Nov-22 19:30N 48°23' W 004°30'  
2017-Nov-20 00:31N 48°23' W 004°30'0 0.0
2017-Nov-20 00:00N 48°23' W 004°30'0 0.0
2017-Nov-19 23:31N 48°23' W 004°30'0 0.0
2017-Nov-19 23:01N 48°23' W 004°30'0 0.0
2017-Nov-19 22:30N 48°23' W 004°30'0 0.0
2017-Nov-19 22:01N 48°23' W 004°30'0 0.0
2017-Nov-19 21:30N 48°23' W 004°30'0 0.0
2017-Nov-19 21:00N 48°23' W 004°30'0 0.0
2017-Nov-19 20:30N 48°23' W 004°30'0 0.0
2017-Nov-19 20:00N 48°23' W 004°30'0 0.0
2017-Nov-19 19:31N 48°23' W 004°30'0 0.0
2017-Nov-19 19:01N 48°23' W 004°30'0 0.0
2017-Nov-19 18:30N 48°23' W 004°30'0 0.0
2017-Nov-19 18:01N 48°23' W 004°30'0 0.0
2017-Nov-19 17:31N 48°23' W 004°30'0 0.0
2017-Nov-19 17:00N 48°23' W 004°30'0 0.0
2017-Nov-19 16:31N 48°23' W 004°30'0 0.0
2017-Nov-19 16:01N 48°23' W 004°30'0 0.0
2017-Nov-19 15:31N 48°23' W 004°30'0 0.0
2017-Nov-19 15:00N 48°23' W 004°30'0 0.0
2017-Nov-19 14:30N 48°23' W 004°30'0 0.0
2017-Nov-19 14:01N 48°23' W 004°30'0 0.0
2017-Nov-19 13:31N 48°23' W 004°30'0 0.0
2017-Nov-19 13:00N 48°23' W 004°30'0 0.0
2017-Nov-19 12:30N 48°23' W 004°30'0 0.0
2017-Nov-19 12:00N 48°23' W 004°30'0 0.0
2017-Nov-19 11:31N 48°23' W 004°30'0 0.0
2017-Nov-19 11:01N 48°23' W 004°30'0 0.0
2017-Nov-19 10:31N 48°23' W 004°30'0 0.0
2017-Nov-19 10:01N 48°23' W 004°30'0 0.0
2017-Nov-19 09:30N 48°23' W 004°30'0 0.0
2017-Nov-19 09:00N 48°23' W 004°30'0 0.0
2017-Nov-19 08:30N 48°23' W 004°30'0 0.0
2017-Nov-19 08:00N 48°23' W 004°30'0 0.0
2017-Nov-19 07:30N 48°23' W 004°30'0 0.0
2017-Nov-19 07:00N 48°23' W 004°30'0 0.0
2017-Nov-19 06:31N 48°23' W 004°30'0 0.0
2017-Nov-19 06:00N 48°23' W 004°30'0 0.0
2017-Nov-19 05:31N 48°23' W 004°30'0 0.0
2017-Nov-19 05:01N 48°23' W 004°30'0 0.0
2017-Nov-19 04:31N 48°23' W 004°30'0 0.0
2017-Nov-19 04:00N 48°23' W 004°30'0 0.0
2017-Nov-19 03:31N 48°23' W 004°30'0 0.0
2017-Nov-19 03:00N 48°23' W 004°30'0 0.0
2017-Nov-19 02:30N 48°23' W 004°30'0 0.0
2017-Nov-19 02:00N 48°23' W 004°30'0 0.0
2017-Nov-19 01:30N 48°23' W 004°30'0 0.0
2017-Nov-19 01:01N 48°23' W 004°30'0 0.0
2017-Nov-19 00:31N 48°23' W 004°30'0 0.0
2017-Nov-19 00:00N 48°23' W 004°30'0 0.0
2017-Nov-18 23:31N 48°23' W 004°30'0 0.0
2017-Nov-18 23:00N 48°23' W 004°30'0 0.0
2017-Nov-18 22:30N 48°23' W 004°30'0 0.0
2017-Nov-18 22:01N 48°23' W 004°30'0 0.0
2017-Nov-18 21:30N 48°23' W 004°30'0 0.0
2017-Nov-18 21:01N 48°23' W 004°30'0 0.0
2017-Nov-18 20:31N 48°23' W 004°30'0 0.0
2017-Nov-18 20:00N 48°23' W 004°30'0 0.0
2017-Nov-18 19:31N 48°23' W 004°30'0 0.0
2017-Nov-18 19:01N 48°23' W 004°30'0 0.0
2017-Nov-18 18:30N 48°23' W 004°30'0 0.0
2017-Nov-18 18:01N 48°23' W 004°30'0 0.0
2017-Nov-18 17:30N 48°23' W 004°30'0 0.0
2017-Nov-18 17:00N 48°23' W 004°30'0 0.0
2017-Nov-18 16:31N 48°23' W 004°30'0 0.0
2017-Nov-18 16:00N 48°23' W 004°30'0 0.0
2017-Nov-18 15:31N 48°23' W 004°30'0 0.0
2017-Nov-18 15:01N 48°23' W 004°30'0 0.0
2017-Nov-18 14:31N 48°23' W 004°30'0 0.0
2017-Nov-18 14:00N 48°23' W 004°30'0 0.0
2017-Nov-18 13:30N 48°23' W 004°30'0 0.0
2017-Nov-18 13:00N 48°23' W 004°30'0 0.0
2017-Nov-18 12:30N 48°23' W 004°30'0 0.0
2017-Nov-18 12:01N 48°23' W 004°30'0 0.0
2017-Nov-18 11:31N 48°23' W 004°30'0 0.0
2017-Nov-18 11:00N 48°23' W 004°30'0 0.0
2017-Nov-18 10:30N 48°23' W 004°30'0 0.0
2017-Nov-18 10:01N 48°23' W 004°30'0 0.0
2017-Nov-18 09:30N 48°23' W 004°30'0 0.0
2017-Nov-18 09:01N 48°23' W 004°30'0 0.0
2017-Nov-18 08:30N 48°23' W 004°30'0 0.0
2017-Nov-18 08:00N 48°23' W 004°30'0 0.0
2017-Nov-18 07:31N 48°23' W 004°30'0 0.0
2017-Nov-18 07:01N 48°23' W 004°30'0 0.0
2017-Nov-18 06:30N 48°23' W 004°30'0 0.0
2017-Nov-18 06:01N 48°23' W 004°30'0 0.0
2017-Nov-18 05:31N 48°23' W 004°30'0 0.0
2017-Nov-18 05:01N 48°23' W 004°30'0 0.0
2017-Nov-18 04:30N 48°23' W 004°30'0 0.0
2017-Nov-18 04:01N 48°23' W 004°30'0 0.0
2017-Nov-18 03:30N 48°23' W 004°30'0 0.0
2017-Nov-18 03:00N 48°23' W 004°30'0 0.0
2017-Nov-18 02:31N 48°23' W 004°30'0 0.0
2017-Nov-18 02:00N 48°23' W 004°30'0 0.0
2017-Nov-18 01:30N 48°23' W 004°30'0 0.0
2017-Nov-18 01:00N 48°23' W 004°30'0 0.0
2017-Nov-18 00:30N 48°23' W 004°30'0 0.0
2017-Nov-18 00:01N 48°23' W 004°30'0 0.0
2017-Nov-17 23:31N 48°23' W 004°30'0 0.0
2017-Nov-17 23:01N 48°23' W 004°30'0 0.0
2017-Nov-17 22:30N 48°23' W 004°30'0 0.0
2017-Nov-17 22:00N 48°23' W 004°30'0 0.0
2017-Nov-17 21:31N 48°23' W 004°30'0 0.0
2017-Nov-17 21:00N 48°23' W 004°30'0 0.0
2017-Nov-17 20:30N 48°23' W 004°30'0 0.0
2017-Nov-17 20:00N 48°23' W 004°30'0 0.0
2017-Nov-17 19:31N 48°23' W 004°30'0 0.0
2017-Nov-17 19:01N 48°23' W 004°30'0 0.0
2017-Nov-17 18:31N 48°23' W 004°30'0 0.0
2017-Nov-17 18:00N 48°23' W 004°30'0 0.0
2017-Nov-17 17:30N 48°23' W 004°30'0 0.0
2017-Nov-17 17:00N 48°23' W 004°30'0 0.0
2017-Nov-17 16:30N 48°23' W 004°30'1 1.4
2017-Nov-17 16:00N 48°22' W 004°29'5 9.1
2017-Nov-17 15:30N 48°18' W 004°31'510.4
2017-Nov-17 15:00N 48°23' W 004°30'0 0.0
2017-Nov-17 14:31N 48°23' W 004°30'0 0.0
2017-Nov-17 14:01N 48°23' W 004°30'0 0.0
2017-Nov-17 13:31N 48°23' W 004°30'0 0.0
2017-Nov-17 13:01N 48°23' W 004°30'0 0.0
2017-Nov-17 12:30N 48°23' W 004°30'0 0.0
2017-Nov-17 12:01N 48°23' W 004°30'0 0.0
2017-Nov-17 11:31N 48°23' W 004°30'510.4
2017-Nov-17 11:00N 48°18' W 004°31'4 7.8
2017-Nov-17 10:30N 48°17' W 004°25'713.4
2017-Nov-17 10:00N 48°23' W 004°30'0 0.0
2017-Nov-17 09:31N 48°23' W 004°30'0 0.0
2017-Nov-17 09:01N 48°23' W 004°30'0 0.8
2017-Nov-17 08:30N 48°23' W 004°30'5 9.5
2017-Nov-17 08:00N 48°18' W 004°31'510.6
2017-Nov-17 07:31N 48°23' W 004°30'510.2
2017-Nov-17 07:00N 48°18' W 004°30'1 1.1
2017-Nov-17 06:30N 48°18' W 004°31'510.4
2017-Nov-17 06:01N 48°23' W 004°30'0 0.2
2017-Nov-17 05:31N 48°23' W 004°30'0 0.0
2017-Nov-17 05:01N 48°23' W 004°30'0 0.0
2017-Nov-17 04:31N 48°23' W 004°30'0 0.0
2017-Nov-17 04:01N 48°23' W 004°30'0 0.0
2017-Nov-17 03:30N 48°23' W 004°30'0 0.0
2017-Nov-17 03:01N 48°23' W 004°30'0 0.0
2017-Nov-17 02:31N 48°23' W 004°30'0 0.0
2017-Nov-17 02:00N 48°23' W 004°30'0 0.0
2017-Nov-17 01:31N 48°23' W 004°30'0 0.0
2017-Nov-17 01:00N 48°23' W 004°30'0 0.0
2017-Nov-17 00:30N 48°23' W 004°30'0 0.0
2017-Nov-17 00:00N 48°23' W 004°30'0 0.0
2017-Nov-16 23:30N 48°23' W 004°30'0 0.0
2017-Nov-16 23:01N 48°23' W 004°30'0 0.0
2017-Nov-16 22:31N 48°23' W 004°30'0 0.0
2017-Nov-16 22:00N 48°23' W 004°30'0 0.0
2017-Nov-16 21:30N 48°23' W 004°30'0 0.0
2017-Nov-16 21:00N 48°23' W 004°30'0 0.0
2017-Nov-16 20:31N 48°23' W 004°30'0 0.0
2017-Nov-16 20:00N 48°23' W 004°30'0 0.0
2017-Nov-16 19:30N 48°23' W 004°30'0 0.0
2017-Nov-16 19:01N 48°23' W 004°30'0 0.0
2017-Nov-16 18:31N 48°23' W 004°30'0 0.3
2017-Nov-16 18:01N 48°23' W 004°30'510.1
2017-Nov-16 17:30N 48°18' W 004°30'3 5.2
2017-Nov-16 17:00N 48°19' W 004°27'5 9.8
2017-Nov-16 16:30N 48°23' W 004°30'0 0.5
2017-Nov-16 16:01N 48°23' W 004°30'5 9.0
2017-Nov-16 15:27N 48°18' W 004°31'3 7.5
2017-Nov-16 15:01N 48°21' W 004°29'2 4.1
2017-Nov-16 14:30N 48°23' W 004°30'0 0.0
2017-Nov-16 14:00N 48°23' W 004°30'0 0.0
2017-Nov-16 13:30N 48°23' W 004°30'0 0.0
2017-Nov-16 13:00N 48°23' W 004°30'0 0.0
2017-Nov-16 12:30N 48°23' W 004°30'0 0.0
2017-Nov-16 12:00N 48°23' W 004°30'0 0.0
2017-Nov-16 11:30N 48°23' W 004°30'0 0.0
2017-Nov-16 11:00N 48°23' W 004°30'0 0.0
2017-Nov-16 10:30N 48°23' W 004°30'0 0.0
2017-Nov-16 10:00N 48°23' W 004°30'0 0.0
2017-Nov-16 09:31N 48°23' W 004°30'0 0.0
2017-Nov-16 09:00N 48°23' W 004°30'0 0.0
2017-Nov-16 08:30N 48°23' W 004°30'0 0.0
2017-Nov-16 08:00N 48°23' W 004°30'0 0.0
2017-Nov-16 07:30N 48°23' W 004°30'510.5
2017-Nov-16 07:00N 48°18' W 004°31'510.0
2017-Nov-16 06:30N 48°23' W 004°30'0 0.6
2017-Nov-16 06:00N 48°23' W 004°30'0 0.0
2017-Nov-16 05:31N 48°23' W 004°30'0 0.0
2017-Nov-16 05:00N 48°23' W 004°30'0 0.0
2017-Nov-16 04:30N 48°23' W 004°30'0 0.0
2017-Nov-16 04:00N 48°23' W 004°30'0 0.0
2017-Nov-16 03:30N 48°23' W 004°30'0 0.0
2017-Nov-16 03:00N 48°23' W 004°30'0 0.0
2017-Nov-16 02:30N 48°23' W 004°30'0 0.0
2017-Nov-16 02:00N 48°23' W 004°30'0 0.0
2017-Nov-16 01:30N 48°23' W 004°30'0 0.0
2017-Nov-16 01:00N 48°23' W 004°30'0 0.0
2017-Nov-16 00:30N 48°23' W 004°30'0 0.0
2017-Nov-16 00:00N 48°23' W 004°30'0 0.0
2017-Nov-15 23:30N 48°23' W 004°30'0 0.0
2017-Nov-15 23:00N 48°23' W 004°30'0 0.0
2017-Nov-15 22:30N 48°23' W 004°30'0 0.0
2017-Nov-15 22:00N 48°23' W 004°30'0 0.0
2017-Nov-15 21:30N 48°23' W 004°30'0 0.0
2017-Nov-15 21:00N 48°23' W 004°30'0 0.0
2017-Nov-15 20:30N 48°23' W 004°30'0 0.0
2017-Nov-15 20:01N 48°23' W 004°30'0 0.0
2017-Nov-15 19:30N 48°23' W 004°30'0 0.0
2017-Nov-15 19:00N 48°23' W 004°30'0 0.0
2017-Nov-15 18:30N 48°23' W 004°30'0 0.4
2017-Nov-15 18:00N 48°23' W 004°30'510.1
2017-Nov-15 17:30N 48°18' W 004°30'2 4.9
2017-Nov-15 17:00N 48°19' W 004°27'5 9.6
2017-Nov-15 16:30N 48°23' W 004°30'0 0.5
2017-Nov-15 16:00N 48°23' W 004°30'5 9.7
2017-Nov-15 15:29N 48°18' W 004°31'4 8.0
2017-Nov-15 15:01N 48°22' W 004°29'2 3.0
2017-Nov-15 14:30N 48°23' W 004°30'0 0.0
2017-Nov-15 14:00N 48°23' W 004°30'0 0.0
2017-Nov-15 13:30N 48°23' W 004°30'0 0.0
2017-Nov-15 13:01N 48°23' W 004°30'0 0.0
2017-Nov-15 12:30N 48°23' W 004°30'0 0.0
2017-Nov-15 12:00N 48°23' W 004°30'0 0.0
2017-Nov-15 11:30N 48°23' W 004°30'0 0.0
2017-Nov-15 11:00N 48°23' W 004°30'0 0.0
2017-Nov-15 10:30N 48°23' W 004°30'0 0.0
2017-Nov-15 10:00N 48°23' W 004°30'0 0.0
2017-Nov-15 09:30N 48°23' W 004°30'0 0.0
2017-Nov-15 09:00N 48°23' W 004°30'0 0.0
2017-Nov-15 08:30N 48°23' W 004°30'0 0.0
2017-Nov-15 08:00N 48°23' W 004°30'0 0.0
2017-Nov-15 07:30N 48°23' W 004°30'510.6
2017-Nov-15 07:00N 48°18' W 004°31'5 9.9
2017-Nov-15 06:31N 48°23' W 004°30'0 0.7
2017-Nov-15 06:00N 48°23' W 004°30'0 0.0
2017-Nov-15 05:30N 48°23' W 004°30'0 0.0
2017-Nov-15 05:01N 48°23' W 004°30'0 0.0
2017-Nov-15 04:31N 48°23' W 004°30'0 0.0
2017-Nov-15 04:00N 48°23' W 004°30'0 0.0
2017-Nov-15 03:31N 48°23' W 004°30'0 0.0
2017-Nov-15 03:01N 48°23' W 004°30'0 0.0
2017-Nov-15 02:30N 48°23' W 004°30'0 0.0
2017-Nov-15 02:00N 48°23' W 004°30'  

Dump ship's entire track history